Wetterdaten: aktuell Mittwoch, 18.09.2019 21:50
Datum Zeit Temp. I. Temp. A. Temp. Garten Feuchte I. Feuchte A. LF Garten Luftdruck Regen Wind Richtung Richtung Sonnenschein Taupunkt Windchill
18.09.2019 21:50 24,0 C 8,6 C 10,3 C 42 % 71 % 61 % 1020,3 hPa 0,0 l/m 13,0 km/h (3 Bft) N-NO 15 0 min 3,6 C 4,4 C
18.09.2019 20:50 24,2 C 9,6 C 11,4 C 41 % 67 % 59 % 1020,2 hPa 0,0 l/m 9,7 km/h (2 Bft) NO 55 0 min 3,8 C 7,3 C
18.09.2019 19:50 24,2 C 11,4 C 13,5 C 40 % 58 % 52 % 1019,1 hPa 0,0 l/m 6,7 km/h (2 Bft) O-NO 70 0 min 3,4 C 11,2 C
18.09.2019 18:50 24,4 C 15,4 C 15,8 C 39 % 42 % 47 % 1017,7 hPa 0,0 l/m 0,0 km/h (0 Bft) N 355 55 min 2,6 C 15,4 C
18.09.2019 17:50 25,4 C 17,3 C 16,8 C 42 % 32 % 42 % 1017,6 hPa 0,0 l/m 11,8 km/h (2 Bft) O 95 59 min 0,5 C 15,0 C
18.09.2019 16:50 25,6 C 17,7 C 17,2 C 42 % 30 % 42 % 1017,5 hPa 0,0 l/m 13,0 km/h (3 Bft) O 85 61 min -0,1 C 15,1 C
18.09.2019 15:50 26,0 C 18,6 C 17,1 C 43 % 28 % 43 % 1017,5 hPa 0,0 l/m 7,6 km/h (2 Bft) O-NO 60 61 min -0,3 C 18,1 C
18.09.2019 14:50 26,1 C 18,6 C 17,4 C 44 % 31 % 45 % 1017,5 hPa 0,0 l/m 9,7 km/h (2 Bft) N 5 59 min 1,1 C 17,2 C
18.09.2019 13:50 26,4 C 16,5 C 17,0 C 43 % 34 % 43 % 1019,7 hPa 0,0 l/m 26,3 km/h (4 Bft) N 10 60 min 0,6 C 10,4 C
18.09.2019 12:50 27,0 C 16,6 C 16,8 C 42 % 37 % 48 % 1018,6 hPa 0,0 l/m 14,8 km/h (3 Bft) N 10 61 min 1,9 C 13,2 C
18.09.2019 11:50 27,2 C 14,9 C 16,4 C 42 % 43 % 50 % 1018,8 hPa 0,0 l/m 28,0 km/h (4 Bft) O-NO 70 62 min 2,4 C 7,9 C
18.09.2019 10:50 26,9 C 14,4 C 14,6 C 42 % 48 % 59 % 1019,8 hPa 0,0 l/m 20,6 km/h (4 Bft) N-NO 25 58 min 3,5 C 8,8 C
18.09.2019 09:50 25,9 C 13,6 C 12,6 C 44 % 54 % 63 % 1019,9 hPa 0,0 l/m 18,2 km/h (3 Bft) N-NO 15 59 min 4,5 C 8,5 C
18.09.2019 08:50 24,8 C 11,8 C 11,5 C 47 % 61 % 67 % 1019,0 hPa 0,0 l/m 24,2 km/h (4 Bft) NO 50 61 min 4,5 C 4,5 C
18.09.2019 07:50 23,4 C 11,3 C 10,7 C 47 % 63 % 68 % 1018,0 hPa 0,0 l/m 11,5 km/h (2 Bft) N-NO 30 56 min 4,5 C 8,3 C
18.09.2019 06:50 22,8 C 10,3 C 11,0 C 46 % 63 % 65 % 1018,1 hPa 0,0 l/m 11,2 km/h (2 Bft) N-NW 340 0 min 3,6 C 7,3 C
18.09.2019 05:50 22,8 C 11,0 C 11,8 C 42 % 61 % 63 % 1017,0 hPa 0,0 l/m 12,4 km/h (3 Bft) N 5 0 min 3,8 C 7,5 C
18.09.2019 04:50 23,2 C 12,0 C 12,6 C 49 % 56 % 62 % 1017,0 hPa 0,0 l/m 13,3 km/h (3 Bft) N-NW 345 0 min 3,5 C 8,2 C
18.09.2019 03:50 23,5 C 13,0 C 13,5 C 51 % 55 % 64 % 1014,8 hPa 0,0 l/m 26,0 km/h (4 Bft) O-NO 60 0 min 4,2 C 5,7 C
18.09.2019 02:50 23,6 C 13,8 C 14,3 C 51 % 66 % 71 % 1014,8 hPa 0,0 l/m 7,9 km/h (2 Bft) N 5 0 min 7,6 C 12,9 C
18.09.2019 01:50 23,7 C 14,6 C 14,7 C 51 % 70 % 75 % 1013,7 hPa 0,0 l/m 13,3 km/h (3 Bft) O-NO 70 0 min 9,2 C 11,3 C
18.09.2019 00:50 23,8 C 14,7 C 14,8 C 51 % 73 % 77 % 1012,7 hPa 0,0 l/m 9,1 km/h (2 Bft) NO 50 0 min 9,9 C 13,2 C
18.09.2019 00:00 23,6 C 15,0 C 15,0 C 51 % 73 % 78 % 1012,6 hPa 0,0 l/m 11,2 km/h (2 Bft) N 355 0 min 10,2 C 12,6 C
_ Min-Zeit 05:20 21:40 21:50 18:20 16:10 16:15 00:10 - 18:40 - - - 15:35 04:55
Minimum _ 22,7 C 8,6 C 10,3 C 37 % 27 % 40 % 1012,6 hPa - 0,0 km/h (0 Bft) - - - -1,0 C 3,5 C
_ Max-Zeit 11:15 16:20 14:15 00:40 00:35 00:00 21:40 00:00 04:05 - - 08:35 00:00 15:50
Maximum _ 27,2 C 18,8 C 17,4 C 52 % 75 % 78 % 1020,3 hPa 0,0 l/m 33,1 km/h
N (5 Bft)
- - 8 min 10,2 C 18,1 C
Durchschnitt _ 24,8 C 14,0 C 14,3 C 45 % 52 % 58 % 1017,6 hPa #0,0 l/m 14,4 km/h (3 Bft) N-NO - #11:52 h 3,6 C 10,6 C